首页
METAR-TAF:

METAR-TAF

机场 :

蘇黎世機場

苏黎世, 瑞士

纬度: 47-29N, 经度: 008-32E, 海拔: 436米

当前天气观测

该预报发布于10分钟前的11:20 UTC
风速2节,风向多变
温度 0°C
湿度 93%
气压 1020 hPa
能見度: 0450
冻雾

METAR: LSZH 261120Z VRB02KT 0450 R14/0750U R16/0700U R28/1900N R34/1900U FZFG VV002 M00/M01 Q1020 TEMPO 0600 PRFG

时间: 12:30 (11:30 UTC)

预报

该预报发布于2小时和20分钟前的09:10 UTC
预报有效从26日的 09点(UTC)到 27日的 15点(UTC)
风速3节,风向多变
能見度: 0400
层高于100英尺
冻雾
成为
从 26日的 09点(UTC)到 26日的 11点(UTC)
能見度: 1500
多云层高于300英尺
碎片雾
成为
从 26日的 11点(UTC)到 26日的 14点(UTC)
能見度: 4000
少量云层高于700英尺
轻雾
短暂存在
从 26日的 18点(UTC)到 27日的 03点(UTC)
多云层高于4500英尺
小雨
几率 30%
从 27日的 03点(UTC)到 27日的 09点(UTC)
能見度: 1500
多云层高于300英尺
碎片雾
成为
从 27日的 09点(UTC)到 27日的 11点(UTC)
能見度: 8000

TAF: LSZH 260910Z 2609/2715 VRB03KT 0400 FZFG VV001 TX02/2614Z TNM00/2705Z TX07/2714Z BECMG 2609/2611 1500 BCFG BKN003 BECMG 2611/2614 4000 BR FEW007 TEMPO 2618/2703 -RA BKN045 PROB30 2703/2709 1500 BCFG BKN003 BECMG 2709/2711 8000

超过4000个机场的气象观测和天气预报(METAR&TAF报告)。

可查询的气象台以黄色和红色小点在地图上表示。

将鼠标移到小点上方,可查看气象台名称。

然后点击查看天气观测和预报。

如需切换地图:点击带黑十字的绿色按钮放大地图;点击带横线的绿色按钮缩小地图;或者点击绿色箭头查看邻近地区的地图。


METAR-TAF: